Terminal Aerodrome Forecast
Issued by NWS

Home | Current Version | Previous Version | Text Only | Print | Product List | Glossary On
Versions: 1 2 3 4 5 6 7 8 9 10 11 12 13 14 15 16 17 18 19 20 21 22 23 24 25 26 27 28 29 30 31 32
000
FTUS41 KBOX 192320
TAFACK
TAF
KACK 192320Z 2000/2024 13005KT P6SM SKC
     FM200500 13005KT 3SM BR FEW250
     FM200800 09005KT P6SM FEW250
     FM201800 07009KT P6SM FEW250=

USA.gov is the U.S. government's official web portal to all federal, state and local government web resources and services.